sensor_id;sensor_type;location;lat;lon;timestamp;temperature;humidity
21019;DHT22;10667;51.056;3.732;2023-02-18T00:02:08;11.90;99.90
21019;DHT22;10667;51.056;3.732;2023-02-18T00:04:33;11.90;99.90
21019;DHT22;10667;51.056;3.732;2023-02-18T00:06:59;11.90;99.90
21019;DHT22;10667;51.056;3.732;2023-02-18T00:09:25;11.90;99.90
21019;DHT22;10667;51.056;3.732;2023-02-18T00:11:51;11.90;99.90
21019;DHT22;10667;51.056;3.732;2023-02-18T00:14:17;11.80;99.90
21019;DHT22;10667;51.056;3.732;2023-02-18T00:16:43;11.90;99.90
21019;DHT22;10667;51.056;3.732;2023-02-18T00:19:15;11.90;99.90
21019;DHT22;10667;51.056;3.732;2023-02-18T00:21:42;12.00;99.90
21019;DHT22;10667;51.056;3.732;2023-02-18T00:24:09;12.00;99.90
21019;DHT22;10667;51.056;3.732;2023-02-18T00:26:36;12.10;99.90
21019;DHT22;10667;51.056;3.732;2023-02-18T00:29:02;12.00;99.90
21019;DHT22;10667;51.056;3.732;2023-02-18T00:31:33;11.90;99.90
21019;DHT22;10667;51.056;3.732;2023-02-18T00:34:00;12.00;99.90
21019;DHT22;10667;51.056;3.732;2023-02-18T00:36:26;12.00;99.90
21019;DHT22;10667;51.056;3.732;2023-02-18T00:38:55;12.00;99.90
21019;DHT22;10667;51.056;3.732;2023-02-18T00:41:22;12.00;99.90
21019;DHT22;10667;51.056;3.732;2023-02-18T00:43:48;12.00;99.90
21019;DHT22;10667;51.056;3.732;2023-02-18T00:46:15;12.00;99.90
21019;DHT22;10667;51.056;3.732;2023-02-18T00:48:40;12.00;99.90
21019;DHT22;10667;51.056;3.732;2023-02-18T00:51:06;12.00;99.90
21019;DHT22;10667;51.056;3.732;2023-02-18T00:53:33;12.00;99.90
21019;DHT22;10667;51.056;3.732;2023-02-18T00:55:59;12.00;99.90
21019;DHT22;10667;51.056;3.732;2023-02-18T00:58:25;11.90;99.90
21019;DHT22;10667;51.056;3.732;2023-02-18T01:00:51;11.90;99.90
21019;DHT22;10667;51.056;3.732;2023-02-18T01:03:17;11.80;99.90
21019;DHT22;10667;51.056;3.732;2023-02-18T01:05:43;11.80;99.90
21019;DHT22;10667;51.056;3.732;2023-02-18T01:08:09;11.80;99.90
21019;DHT22;10667;51.056;3.732;2023-02-18T01:10:40;11.90;99.90
21019;DHT22;10667;51.056;3.732;2023-02-18T01:13:06;11.90;99.90
21019;DHT22;10667;51.056;3.732;2023-02-18T01:15:31;11.80;99.90
21019;DHT22;10667;51.056;3.732;2023-02-18T01:17:57;11.90;99.90
21019;DHT22;10667;51.056;3.732;2023-02-18T01:20:23;11.80;99.90
21019;DHT22;10667;51.056;3.732;2023-02-18T01:22:49;11.80;99.90
21019;DHT22;10667;51.056;3.732;2023-02-18T01:25:15;11.90;99.90
21019;DHT22;10667;51.056;3.732;2023-02-18T01:27:40;12.00;99.90
21019;DHT22;10667;51.056;3.732;2023-02-18T01:30:08;11.80;99.90
21019;DHT22;10667;51.056;3.732;2023-02-18T01:32:34;11.70;99.90
21019;DHT22;10667;51.056;3.732;2023-02-18T01:35:02;11.80;99.90
21019;DHT22;10667;51.056;3.732;2023-02-18T01:37:28;11.80;99.90
21019;DHT22;10667;51.056;3.732;2023-02-18T01:39:54;11.90;99.90
21019;DHT22;10667;51.056;3.732;2023-02-18T01:42:25;11.90;99.90
21019;DHT22;10667;51.056;3.732;2023-02-18T01:44:51;11.80;99.90
21019;DHT22;10667;51.056;3.732;2023-02-18T01:47:17;11.90;99.90
21019;DHT22;10667;51.056;3.732;2023-02-18T01:49:46;11.80;99.90
21019;DHT22;10667;51.056;3.732;2023-02-18T01:52:22;11.80;99.90
21019;DHT22;10667;51.056;3.732;2023-02-18T01:54:55;11.80;99.90
21019;DHT22;10667;51.056;3.732;2023-02-18T01:57:33;11.70;99.90
21019;DHT22;10667;51.056;3.732;2023-02-18T02:00:06;11.60;99.90
21019;DHT22;10667;51.056;3.732;2023-02-18T02:02:35;11.60;99.90
21019;DHT22;10667;51.056;3.732;2023-02-18T02:05:02;11.60;99.90
21019;DHT22;10667;51.056;3.732;2023-02-18T02:07:28;11.70;99.90
21019;DHT22;10667;51.056;3.732;2023-02-18T02:09:57;11.80;99.90
21019;DHT22;10667;51.056;3.732;2023-02-18T02:12:56;12.00;99.90
21019;DHT22;10667;51.056;3.732;2023-02-18T02:15:33;11.80;99.90
21019;DHT22;10667;51.056;3.732;2023-02-18T02:29:38;11.80;99.90
21019;DHT22;10667;51.056;3.732;2023-02-18T02:37:41;11.60;99.90
21019;DHT22;10667;51.056;3.732;2023-02-18T02:43:45;11.70;99.90
21019;DHT22;10667;51.056;3.732;2023-02-18T02:46:10;11.80;99.90
21019;DHT22;10667;51.056;3.732;2023-02-18T02:48:45;11.70;99.90
21019;DHT22;10667;51.056;3.732;2023-02-18T02:54:34;11.60;99.90
21019;DHT22;10667;51.056;3.732;2023-02-18T02:59:36;11.60;99.90
21019;DHT22;10667;51.056;3.732;2023-02-18T03:05:23;11.80;99.90
21019;DHT22;10667;51.056;3.732;2023-02-18T03:21:59;11.50;99.90
21019;DHT22;10667;51.056;3.732;2023-02-18T03:26:59;11.60;99.90
21019;DHT22;10667;51.056;3.732;2023-02-18T03:29:26;11.60;99.90
21019;DHT22;10667;51.056;3.732;2023-02-18T03:31:56;11.50;99.90
21019;DHT22;10667;51.056;3.732;2023-02-18T03:34:30;11.40;99.90
21019;DHT22;10667;51.056;3.732;2023-02-18T03:36:58;11.40;99.90
21019;DHT22;10667;51.056;3.732;2023-02-18T03:39:26;11.30;99.90
21019;DHT22;10667;51.056;3.732;2023-02-18T03:41:53;11.30;99.90
21019;DHT22;10667;51.056;3.732;2023-02-18T03:44:19;11.30;99.90
21019;DHT22;10667;51.056;3.732;2023-02-18T03:46:45;11.30;99.90
21019;DHT22;10667;51.056;3.732;2023-02-18T03:49:13;11.30;99.90
21019;DHT22;10667;51.056;3.732;2023-02-18T03:51:39;11.30;99.90
21019;DHT22;10667;51.056;3.732;2023-02-18T03:54:05;11.30;99.90
21019;DHT22;10667;51.056;3.732;2023-02-18T03:56:32;11.30;99.90
21019;DHT22;10667;51.056;3.732;2023-02-18T03:58:58;11.30;99.90
21019;DHT22;10667;51.056;3.732;2023-02-18T04:01:24;11.30;99.90
21019;DHT22;10667;51.056;3.732;2023-02-18T04:03:49;11.30;99.90
21019;DHT22;10667;51.056;3.732;2023-02-18T04:06:15;11.40;99.90
21019;DHT22;10667;51.056;3.732;2023-02-18T04:08:41;11.30;99.90
21019;DHT22;10667;51.056;3.732;2023-02-18T04:11:07;11.30;99.90
21019;DHT22;10667;51.056;3.732;2023-02-18T04:13:32;11.30;99.90
21019;DHT22;10667;51.056;3.732;2023-02-18T04:15:58;11.30;99.90
21019;DHT22;10667;51.056;3.732;2023-02-18T04:18:24;11.40;99.90
21019;DHT22;10667;51.056;3.732;2023-02-18T04:20:50;11.40;99.90
21019;DHT22;10667;51.056;3.732;2023-02-18T04:23:16;11.30;99.90
21019;DHT22;10667;51.056;3.732;2023-02-18T04:25:42;11.40;99.90
21019;DHT22;10667;51.056;3.732;2023-02-18T04:28:09;11.30;99.90
21019;DHT22;10667;51.056;3.732;2023-02-18T04:30:37;11.30;99.90
21019;DHT22;10667;51.056;3.732;2023-02-18T04:33:03;11.50;99.90
21019;DHT22;10667;51.056;3.732;2023-02-18T04:35:29;11.50;99.90
21019;DHT22;10667;51.056;3.732;2023-02-18T04:37:54;11.30;99.90
21019;DHT22;10667;51.056;3.732;2023-02-18T04:40:20;11.40;99.90
21019;DHT22;10667;51.056;3.732;2023-02-18T04:42:46;11.40;99.90
21019;DHT22;10667;51.056;3.732;2023-02-18T04:45:11;11.40;99.90
21019;DHT22;10667;51.056;3.732;2023-02-18T04:47:37;11.30;99.90
21019;DHT22;10667;51.056;3.732;2023-02-18T04:50:03;11.40;99.90
21019;DHT22;10667;51.056;3.732;2023-02-18T04:52:29;11.30;99.90
21019;DHT22;10667;51.056;3.732;2023-02-18T04:54:54;11.40;99.90
21019;DHT22;10667;51.056;3.732;2023-02-18T04:57:20;11.40;99.90
21019;DHT22;10667;51.056;3.732;2023-02-18T04:59:46;11.40;99.90
21019;DHT22;10667;51.056;3.732;2023-02-18T05:02:11;11.40;99.90
21019;DHT22;10667;51.056;3.732;2023-02-18T05:04:37;11.30;99.90
21019;DHT22;10667;51.056;3.732;2023-02-18T05:07:03;11.30;99.90
21019;DHT22;10667;51.056;3.732;2023-02-18T05:09:28;11.20;99.90
21019;DHT22;10667;51.056;3.732;2023-02-18T05:11:54;11.30;99.90
21019;DHT22;10667;51.056;3.732;2023-02-18T05:14:20;11.20;99.90
21019;DHT22;10667;51.056;3.732;2023-02-18T05:16:45;11.30;99.90
21019;DHT22;10667;51.056;3.732;2023-02-18T05:19:14;11.30;99.90
21019;DHT22;10667;51.056;3.732;2023-02-18T05:21:40;11.30;99.90
21019;DHT22;10667;51.056;3.732;2023-02-18T05:24:06;11.30;99.90
21019;DHT22;10667;51.056;3.732;2023-02-18T05:26:33;11.40;99.90
21019;DHT22;10667;51.056;3.732;2023-02-18T05:28:58;11.50;99.90
21019;DHT22;10667;51.056;3.732;2023-02-18T05:31:24;11.50;99.90
21019;DHT22;10667;51.056;3.732;2023-02-18T05:33:50;11.50;99.90
21019;DHT22;10667;51.056;3.732;2023-02-18T05:36:15;11.70;99.90
21019;DHT22;10667;51.056;3.732;2023-02-18T05:38:41;11.60;99.90
21019;DHT22;10667;51.056;3.732;2023-02-18T05:41:07;11.60;99.90
21019;DHT22;10667;51.056;3.732;2023-02-18T05:43:32;11.60;99.90
21019;DHT22;10667;51.056;3.732;2023-02-18T05:46:21;11.50;99.90
21019;DHT22;10667;51.056;3.732;2023-02-18T05:48:46;11.50;99.90
21019;DHT22;10667;51.056;3.732;2023-02-18T05:51:12;11.60;99.90
21019;DHT22;10667;51.056;3.732;2023-02-18T05:53:38;11.50;99.90
21019;DHT22;10667;51.056;3.732;2023-02-18T05:56:04;11.40;99.90
21019;DHT22;10667;51.056;3.732;2023-02-18T05:58:30;11.50;99.90
21019;DHT22;10667;51.056;3.732;2023-02-18T06:00:55;11.50;99.90
21019;DHT22;10667;51.056;3.732;2023-02-18T06:03:21;11.50;99.90
21019;DHT22;10667;51.056;3.732;2023-02-18T06:05:50;11.50;99.90
21019;DHT22;10667;51.056;3.732;2023-02-18T06:08:16;11.40;99.90
21019;DHT22;10667;51.056;3.732;2023-02-18T06:10:42;11.40;99.90
21019;DHT22;10667;51.056;3.732;2023-02-18T06:13:07;11.40;99.90
21019;DHT22;10667;51.056;3.732;2023-02-18T06:15:33;11.60;99.90
21019;DHT22;10667;51.056;3.732;2023-02-18T06:17:59;11.60;99.90
21019;DHT22;10667;51.056;3.732;2023-02-18T06:20:24;11.60;99.90
21019;DHT22;10667;51.056;3.732;2023-02-18T06:22:50;11.60;99.90
21019;DHT22;10667;51.056;3.732;2023-02-18T06:25:16;11.60;99.90
21019;DHT22;10667;51.056;3.732;2023-02-18T06:27:41;11.50;99.90
21019;DHT22;10667;51.056;3.732;2023-02-18T06:30:07;11.60;99.90
21019;DHT22;10667;51.056;3.732;2023-02-18T06:32:33;11.70;99.90
21019;DHT22;10667;51.056;3.732;2023-02-18T06:34:59;11.80;99.90
21019;DHT22;10667;51.056;3.732;2023-02-18T06:37:24;11.70;99.90
21019;DHT22;10667;51.056;3.732;2023-02-18T06:39:50;11.60;99.90
21019;DHT22;10667;51.056;3.732;2023-02-18T06:42:15;11.60;99.90
21019;DHT22;10667;51.056;3.732;2023-02-18T06:44:41;11.50;99.90
21019;DHT22;10667;51.056;3.732;2023-02-18T06:47:07;11.60;99.90
21019;DHT22;10667;51.056;3.732;2023-02-18T06:49:32;11.50;99.90
21019;DHT22;10667;51.056;3.732;2023-02-18T06:52:00;11.60;99.90
21019;DHT22;10667;51.056;3.732;2023-02-18T06:54:26;11.50;99.90
21019;DHT22;10667;51.056;3.732;2023-02-18T06:56:52;11.50;99.90
21019;DHT22;10667;51.056;3.732;2023-02-18T06:59:18;11.50;99.90
21019;DHT22;10667;51.056;3.732;2023-02-18T07:01:44;11.60;99.90
21019;DHT22;10667;51.056;3.732;2023-02-18T07:04:09;11.80;99.90
21019;DHT22;10667;51.056;3.732;2023-02-18T07:06:35;11.80;99.90
21019;DHT22;10667;51.056;3.732;2023-02-18T07:09:00;11.70;99.90
21019;DHT22;10667;51.056;3.732;2023-02-18T07:11:26;11.90;99.90
21019;DHT22;10667;51.056;3.732;2023-02-18T07:13:52;11.80;99.90
21019;DHT22;10667;51.056;3.732;2023-02-18T07:16:17;11.80;99.90
21019;DHT22;10667;51.056;3.732;2023-02-18T07:18:43;11.70;99.90
21019;DHT22;10667;51.056;3.732;2023-02-18T07:21:10;11.80;99.90
21019;DHT22;10667;51.056;3.732;2023-02-18T07:23:35;11.60;99.90
21019;DHT22;10667;51.056;3.732;2023-02-18T07:26:09;11.50;99.90
21019;DHT22;10667;51.056;3.732;2023-02-18T07:28:36;11.60;99.90
21019;DHT22;10667;51.056;3.732;2023-02-18T07:31:01;11.60;99.90
21019;DHT22;10667;51.056;3.732;2023-02-18T07:33:27;11.60;99.90
21019;DHT22;10667;51.056;3.732;2023-02-18T07:35:54;11.70;99.90
21019;DHT22;10667;51.056;3.732;2023-02-18T07:38:21;11.70;99.90
21019;DHT22;10667;51.056;3.732;2023-02-18T07:40:47;11.60;99.90
21019;DHT22;10667;51.056;3.732;2023-02-18T07:43:12;11.50;99.90
21019;DHT22;10667;51.056;3.732;2023-02-18T07:45:38;11.50;99.90
21019;DHT22;10667;51.056;3.732;2023-02-18T07:48:04;11.40;99.90
21019;DHT22;10667;51.056;3.732;2023-02-18T07:50:30;11.50;99.90
21019;DHT22;10667;51.056;3.732;2023-02-18T07:53:00;11.50;99.90
21019;DHT22;10667;51.056;3.732;2023-02-18T07:55:26;11.50;99.90
21019;DHT22;10667;51.056;3.732;2023-02-18T07:58:12;11.60;99.90
21019;DHT22;10667;51.056;3.732;2023-02-18T08:00:37;11.60;99.90
21019;DHT22;10667;51.056;3.732;2023-02-18T08:03:03;11.60;99.90
21019;DHT22;10667;51.056;3.732;2023-02-18T08:05:29;11.60;99.90
21019;DHT22;10667;51.056;3.732;2023-02-18T08:07:54;11.70;99.90
21019;DHT22;10667;51.056;3.732;2023-02-18T08:10:20;11.70;99.90
21019;DHT22;10667;51.056;3.732;2023-02-18T08:12:46;11.80;99.90
21019;DHT22;10667;51.056;3.732;2023-02-18T08:15:12;11.70;99.90
21019;DHT22;10667;51.056;3.732;2023-02-18T08:17:38;11.70;99.90
21019;DHT22;10667;51.056;3.732;2023-02-18T08:20:04;11.80;99.90
21019;DHT22;10667;51.056;3.732;2023-02-18T08:22:30;11.80;99.90
21019;DHT22;10667;51.056;3.732;2023-02-18T08:24:56;11.90;99.90
21019;DHT22;10667;51.056;3.732;2023-02-18T08:27:22;11.60;99.90
21019;DHT22;10667;51.056;3.732;2023-02-18T08:29:48;11.60;99.90
21019;DHT22;10667;51.056;3.732;2023-02-18T08:32:13;11.70;99.90
21019;DHT22;10667;51.056;3.732;2023-02-18T08:34:39;11.70;99.90
21019;DHT22;10667;51.056;3.732;2023-02-18T08:37:04;11.70;99.90
21019;DHT22;10667;51.056;3.732;2023-02-18T08:39:37;11.60;99.90
21019;DHT22;10667;51.056;3.732;2023-02-18T08:42:04;11.60;99.90
21019;DHT22;10667;51.056;3.732;2023-02-18T08:44:29;11.70;99.90
21019;DHT22;10667;51.056;3.732;2023-02-18T08:46:55;11.70;99.90
21019;DHT22;10667;51.056;3.732;2023-02-18T08:49:21;11.80;99.90
21019;DHT22;10667;51.056;3.732;2023-02-18T08:51:49;11.80;99.90
21019;DHT22;10667;51.056;3.732;2023-02-18T08:54:15;11.80;99.90
21019;DHT22;10667;51.056;3.732;2023-02-18T08:56:41;11.90;99.90
21019;DHT22;10667;51.056;3.732;2023-02-18T08:59:06;11.70;99.90
21019;DHT22;10667;51.056;3.732;2023-02-18T09:01:32;11.80;99.90
21019;DHT22;10667;51.056;3.732;2023-02-18T09:03:58;11.90;99.90
21019;DHT22;10667;51.056;3.732;2023-02-18T09:06:24;11.80;99.90
21019;DHT22;10667;51.056;3.732;2023-02-18T09:08:50;11.80;99.90
21019;DHT22;10667;51.056;3.732;2023-02-18T09:11:16;11.80;99.90
21019;DHT22;10667;51.056;3.732;2023-02-18T09:13:42;11.70;99.90
21019;DHT22;10667;51.056;3.732;2023-02-18T09:16:12;11.80;99.90
21019;DHT22;10667;51.056;3.732;2023-02-18T09:18:38;11.90;99.90
21019;DHT22;10667;51.056;3.732;2023-02-18T09:21:05;12.00;99.90
21019;DHT22;10667;51.056;3.732;2023-02-18T09:23:32;12.10;99.90
21019;DHT22;10667;51.056;3.732;2023-02-18T09:25:58;12.00;99.90
21019;DHT22;10667;51.056;3.732;2023-02-18T09:28:24;12.10;99.90
21019;DHT22;10667;51.056;3.732;2023-02-18T09:30:51;12.00;99.90
21019;DHT22;10667;51.056;3.732;2023-02-18T09:33:17;11.90;99.90
21019;DHT22;10667;51.056;3.732;2023-02-18T09:35:44;12.20;99.90
21019;DHT22;10667;51.056;3.732;2023-02-18T09:38:12;12.20;99.90
21019;DHT22;10667;51.056;3.732;2023-02-18T09:40:42;12.20;99.90
21019;DHT22;10667;51.056;3.732;2023-02-18T09:43:26;12.10;99.90
21019;DHT22;10667;51.056;3.732;2023-02-18T09:45:54;12.20;99.90
21019;DHT22;10667;51.056;3.732;2023-02-18T09:48:26;12.30;99.90
21019;DHT22;10667;51.056;3.732;2023-02-18T09:50:53;12.40;99.90
21019;DHT22;10667;51.056;3.732;2023-02-18T09:53:20;12.40;99.90
21019;DHT22;10667;51.056;3.732;2023-02-18T09:55:47;12.40;99.90
21019;DHT22;10667;51.056;3.732;2023-02-18T09:58:29;12.20;99.90
21019;DHT22;10667;51.056;3.732;2023-02-18T10:01:10;12.20;99.90
21019;DHT22;10667;51.056;3.732;2023-02-18T10:03:37;12.20;99.90
21019;DHT22;10667;51.056;3.732;2023-02-18T10:06:21;12.30;99.90
21019;DHT22;10667;51.056;3.732;2023-02-18T10:08:50;12.30;99.90
21019;DHT22;10667;51.056;3.732;2023-02-18T10:11:32;12.30;99.90
21019;DHT22;10667;51.056;3.732;2023-02-18T10:14:00;12.40;99.90
21019;DHT22;10667;51.056;3.732;2023-02-18T10:16:27;12.30;99.90
21019;DHT22;10667;51.056;3.732;2023-02-18T10:18:59;12.40;99.90
21019;DHT22;10667;51.056;3.732;2023-02-18T10:21:27;12.40;99.90
21019;DHT22;10667;51.056;3.732;2023-02-18T10:24:21;12.40;99.90
21019;DHT22;10667;51.056;3.732;2023-02-18T10:26:49;12.50;99.90
21019;DHT22;10667;51.056;3.732;2023-02-18T10:29:18;12.40;99.90
21019;DHT22;10667;51.056;3.732;2023-02-18T10:31:51;12.40;99.90
21019;DHT22;10667;51.056;3.732;2023-02-18T10:34:38;12.40;99.90
21019;DHT22;10667;51.056;3.732;2023-02-18T10:37:56;12.60;99.90
21019;DHT22;10667;51.056;3.732;2023-02-18T10:51:55;12.90;99.90
21019;DHT22;10667;51.056;3.732;2023-02-18T10:54:26;12.90;99.90
21019;DHT22;10667;51.056;3.732;2023-02-18T10:56:58;12.90;99.90
21019;DHT22;10667;51.056;3.732;2023-02-18T10:59:33;12.80;99.90
21019;DHT22;10667;51.056;3.732;2023-02-18T11:02:11;12.90;99.90
21019;DHT22;10667;51.056;3.732;2023-02-18T11:04:40;12.90;99.90
21019;DHT22;10667;51.056;3.732;2023-02-18T11:07:20;13.00;99.90
21019;DHT22;10667;51.056;3.732;2023-02-18T11:09:51;13.00;99.90
21019;DHT22;10667;51.056;3.732;2023-02-18T11:14:47;13.30;99.90
21019;DHT22;10667;51.056;3.732;2023-02-18T11:17:24;13.10;99.90
21019;DHT22;10667;51.056;3.732;2023-02-18T11:19:56;13.00;99.90
21019;DHT22;10667;51.056;3.732;2023-02-18T11:22:28;13.10;99.90
21019;DHT22;10667;51.056;3.732;2023-02-18T11:24:56;13.20;99.90
21019;DHT22;10667;51.056;3.732;2023-02-18T11:27:43;13.20;99.90
21019;DHT22;10667;51.056;3.732;2023-02-18T11:33:01;13.00;99.90
21019;DHT22;10667;51.056;3.732;2023-02-18T11:35:30;13.10;99.90
21019;DHT22;10667;51.056;3.732;2023-02-18T11:37:58;13.10;99.90
21019;DHT22;10667;51.056;3.732;2023-02-18T11:40:31;13.00;99.90
21019;DHT22;10667;51.056;3.732;2023-02-18T11:43:04;13.00;99.90
21019;DHT22;10667;51.056;3.732;2023-02-18T11:45:32;13.00;99.90
21019;DHT22;10667;51.056;3.732;2023-02-18T11:50:33;13.00;99.90
21019;DHT22;10667;51.056;3.732;2023-02-18T11:52:59;13.20;99.90
21019;DHT22;10667;51.056;3.732;2023-02-18T11:55:27;13.30;99.90
21019;DHT22;10667;51.056;3.732;2023-02-18T11:57:59;13.30;99.90
21019;DHT22;10667;51.056;3.732;2023-02-18T12:00:44;13.30;99.90
21019;DHT22;10667;51.056;3.732;2023-02-18T12:06:03;13.30;99.90
21019;DHT22;10667;51.056;3.732;2023-02-18T12:08:34;13.40;99.90
21019;DHT22;10667;51.056;3.732;2023-02-18T12:11:10;13.40;99.90
21019;DHT22;10667;51.056;3.732;2023-02-18T12:13:44;13.40;99.90
21019;DHT22;10667;51.056;3.732;2023-02-18T12:16:56;13.30;99.90
21019;DHT22;10667;51.056;3.732;2023-02-18T12:27:59;13.20;99.90
21019;DHT22;10667;51.056;3.732;2023-02-18T12:36:12;13.00;99.90
21019;DHT22;10667;51.056;3.732;2023-02-18T12:39:09;13.00;99.90
21019;DHT22;10667;51.056;3.732;2023-02-18T12:52:19;13.20;99.90
21019;DHT22;10667;51.056;3.732;2023-02-18T12:57:42;13.10;99.90
21019;DHT22;10667;51.056;3.732;2023-02-18T13:00:46;13.00;99.90
21019;DHT22;10667;51.056;3.732;2023-02-18T13:11:48;13.20;99.90
21019;DHT22;10667;51.056;3.732;2023-02-18T13:14:28;13.10;99.90
21019;DHT22;10667;51.056;3.732;2023-02-18T13:16:56;13.00;99.90
21019;DHT22;10667;51.056;3.732;2023-02-18T13:21:54;13.10;99.90
21019;DHT22;10667;51.056;3.732;2023-02-18T13:24:42;13.10;99.90
21019;DHT22;10667;51.056;3.732;2023-02-18T13:40:44;13.40;99.90
21019;DHT22;10667;51.056;3.732;2023-02-18T13:43:18;13.50;99.90
21019;DHT22;10667;51.056;3.732;2023-02-18T13:48:34;13.70;99.90
21019;DHT22;10667;51.056;3.732;2023-02-18T13:51:05;13.40;99.90
21019;DHT22;10667;51.056;3.732;2023-02-18T13:53:35;13.40;99.90
21019;DHT22;10667;51.056;3.732;2023-02-18T13:56:26;13.30;99.90
21019;DHT22;10667;51.056;3.732;2023-02-18T13:58:53;13.10;99.90
21019;DHT22;10667;51.056;3.732;2023-02-18T14:04:00;13.30;99.90
21019;DHT22;10667;51.056;3.732;2023-02-18T14:06:34;13.30;99.90
21019;DHT22;10667;51.056;3.732;2023-02-18T14:22:48;13.20;99.90
21019;DHT22;10667;51.056;3.732;2023-02-18T14:27:40;13.20;99.90
21019;DHT22;10667;51.056;3.732;2023-02-18T14:30:19;13.20;99.90
21019;DHT22;10667;51.056;3.732;2023-02-18T14:32:51;13.20;99.90
21019;DHT22;10667;51.056;3.732;2023-02-18T14:35:39;13.20;99.90
21019;DHT22;10667;51.056;3.732;2023-02-18T14:41:03;13.10;99.90
21019;DHT22;10667;51.056;3.732;2023-02-18T14:44:03;13.10;99.90
21019;DHT22;10667;51.056;3.732;2023-02-18T14:49:51;13.10;99.90
21019;DHT22;10667;51.056;3.732;2023-02-18T14:52:36;13.10;99.90
21019;DHT22;10667;51.056;3.732;2023-02-18T14:55:05;13.00;99.90
21019;DHT22;10667;51.056;3.732;2023-02-18T14:57:47;12.90;99.90
21019;DHT22;10667;51.056;3.732;2023-02-18T15:00:18;13.00;99.90
21019;DHT22;10667;51.056;3.732;2023-02-18T15:02:50;13.00;99.90
21019;DHT22;10667;51.056;3.732;2023-02-18T15:05:22;13.10;99.90
21019;DHT22;10667;51.056;3.732;2023-02-18T15:07:58;13.10;99.90
21019;DHT22;10667;51.056;3.732;2023-02-18T15:10:52;13.00;99.90
21019;DHT22;10667;51.056;3.732;2023-02-18T15:13:30;13.20;99.90
21019;DHT22;10667;51.056;3.732;2023-02-18T15:16:05;13.40;99.90
21019;DHT22;10667;51.056;3.732;2023-02-18T15:18:41;13.20;99.90
21019;DHT22;10667;51.056;3.732;2023-02-18T15:23:47;13.10;99.90
21019;DHT22;10667;51.056;3.732;2023-02-18T15:26:14;13.20;99.90
21019;DHT22;10667;51.056;3.732;2023-02-18T15:28:50;13.00;99.90
21019;DHT22;10667;51.056;3.732;2023-02-18T15:31:24;12.90;99.90
21019;DHT22;10667;51.056;3.732;2023-02-18T15:33:51;13.10;99.90
21019;DHT22;10667;51.056;3.732;2023-02-18T15:36:17;13.00;99.90
21019;DHT22;10667;51.056;3.732;2023-02-18T15:38:42;12.80;99.90
21019;DHT22;10667;51.056;3.732;2023-02-18T15:41:14;12.90;99.90
21019;DHT22;10667;51.056;3.732;2023-02-18T15:43:58;12.80;99.90
21019;DHT22;10667;51.056;3.732;2023-02-18T15:46:26;12.80;99.90
21019;DHT22;10667;51.056;3.732;2023-02-18T15:48:53;12.90;99.90
21019;DHT22;10667;51.056;3.732;2023-02-18T15:51:24;12.90;99.90
21019;DHT22;10667;51.056;3.732;2023-02-18T15:53:55;12.90;99.90
21019;DHT22;10667;51.056;3.732;2023-02-18T15:56:31;12.80;99.90
21019;DHT22;10667;51.056;3.732;2023-02-18T15:59:27;12.90;99.90
21019;DHT22;10667;51.056;3.732;2023-02-18T16:02:16;12.90;99.90
21019;DHT22;10667;51.056;3.732;2023-02-18T16:04:54;12.80;99.90
21019;DHT22;10667;51.056;3.732;2023-02-18T16:07:27;13.00;99.90
21019;DHT22;10667;51.056;3.732;2023-02-18T16:10:17;13.00;99.90
21019;DHT22;10667;51.056;3.732;2023-02-18T16:12:49;12.90;99.90
21019;DHT22;10667;51.056;3.732;2023-02-18T16:15:26;12.90;99.90
21019;DHT22;10667;51.056;3.732;2023-02-18T16:17:53;12.90;99.90
21019;DHT22;10667;51.056;3.732;2023-02-18T16:20:31;12.80;99.90
21019;DHT22;10667;51.056;3.732;2023-02-18T16:23:12;12.80;99.90
21019;DHT22;10667;51.056;3.732;2023-02-18T16:28:15;12.90;99.90
21019;DHT22;10667;51.056;3.732;2023-02-18T16:30:42;12.90;99.90
21019;DHT22;10667;51.056;3.732;2023-02-18T16:33:09;13.00;99.90
21019;DHT22;10667;51.056;3.732;2023-02-18T16:35:35;13.00;99.90
21019;DHT22;10667;51.056;3.732;2023-02-18T16:38:01;12.80;99.90
21019;DHT22;10667;51.056;3.732;2023-02-18T16:40:35;12.70;99.90
21019;DHT22;10667;51.056;3.732;2023-02-18T16:43:12;12.70;99.90
21019;DHT22;10667;51.056;3.732;2023-02-18T16:45:44;12.80;99.90
21019;DHT22;10667;51.056;3.732;2023-02-18T16:50:44;12.60;99.90
21019;DHT22;10667;51.056;3.732;2023-02-18T16:53:13;12.60;99.90
21019;DHT22;10667;51.056;3.732;2023-02-18T16:55:39;12.60;99.90
21019;DHT22;10667;51.056;3.732;2023-02-18T16:58:05;12.60;99.90
21019;DHT22;10667;51.056;3.732;2023-02-18T17:00:30;12.50;99.90
21019;DHT22;10667;51.056;3.732;2023-02-18T17:02:58;12.50;99.90
21019;DHT22;10667;51.056;3.732;2023-02-18T17:05:30;12.60;99.90
21019;DHT22;10667;51.056;3.732;2023-02-18T17:08:25;12.60;99.90
21019;DHT22;10667;51.056;3.732;2023-02-18T17:10:56;12.50;99.90
21019;DHT22;10667;51.056;3.732;2023-02-18T17:13:27;12.50;99.90
21019;DHT22;10667;51.056;3.732;2023-02-18T17:15:56;12.50;99.90
21019;DHT22;10667;51.056;3.732;2023-02-18T17:18:22;12.50;99.90
21019;DHT22;10667;51.056;3.732;2023-02-18T17:20:49;12.70;99.90
21019;DHT22;10667;51.056;3.732;2023-02-18T17:23:17;12.60;99.90
21019;DHT22;10667;51.056;3.732;2023-02-18T17:25:43;12.30;99.90
21019;DHT22;10667;51.056;3.732;2023-02-18T17:28:09;12.20;99.90
21019;DHT22;10667;51.056;3.732;2023-02-18T17:30:37;12.20;99.90
21019;DHT22;10667;51.056;3.732;2023-02-18T17:33:04;12.30;99.90
21019;DHT22;10667;51.056;3.732;2023-02-18T17:35:31;12.30;99.90
21019;DHT22;10667;51.056;3.732;2023-02-18T17:37:57;12.40;99.90
21019;DHT22;10667;51.056;3.732;2023-02-18T17:40:25;12.30;99.90
21019;DHT22;10667;51.056;3.732;2023-02-18T17:42:53;12.00;99.90
21019;DHT22;10667;51.056;3.732;2023-02-18T17:45:27;12.20;99.90
21019;DHT22;10667;51.056;3.732;2023-02-18T17:47:58;12.10;99.90
21019;DHT22;10667;51.056;3.732;2023-02-18T17:50:24;12.00;99.90
21019;DHT22;10667;51.056;3.732;2023-02-18T17:52:50;12.00;99.90
21019;DHT22;10667;51.056;3.732;2023-02-18T17:55:20;12.20;99.90
21019;DHT22;10667;51.056;3.732;2023-02-18T17:57:47;12.20;99.90
21019;DHT22;10667;51.056;3.732;2023-02-18T18:00:15;12.00;99.90
21019;DHT22;10667;51.056;3.732;2023-02-18T18:02:41;12.00;99.90
21019;DHT22;10667;51.056;3.732;2023-02-18T18:05:19;12.00;99.90
21019;DHT22;10667;51.056;3.732;2023-02-18T18:07:44;12.00;99.90
21019;DHT22;10667;51.056;3.732;2023-02-18T18:10:11;12.20;99.90
21019;DHT22;10667;51.056;3.732;2023-02-18T18:12:37;12.20;99.90
21019;DHT22;10667;51.056;3.732;2023-02-18T18:15:32;12.20;99.90
21019;DHT22;10667;51.056;3.732;2023-02-18T18:17:57;12.20;99.90
21019;DHT22;10667;51.056;3.732;2023-02-18T18:20:24;12.10;99.90
21019;DHT22;10667;51.056;3.732;2023-02-18T18:22:52;12.10;99.90